createdAt,value
2019-02-06T00:00:27.111Z,1029.49
2019-02-06T00:01:26.554Z,1029.47
2019-02-06T00:02:25.995Z,1029.47
2019-02-06T00:03:26.159Z,1029.43
2019-02-06T00:04:25.852Z,1029.46
2019-02-06T00:05:25.725Z,1029.43
2019-02-06T00:06:26.226Z,1029.42
2019-02-06T00:07:25.811Z,1029.43
2019-02-06T00:08:26.421Z,1029.41
2019-02-06T00:09:26.100Z,1029.39
2019-02-06T00:10:26.209Z,1029.43
2019-02-06T00:11:25.585Z,1029.44
2019-02-06T00:12:25.950Z,1029.44
2019-02-06T00:13:26.173Z,1029.41
2019-02-06T00:14:26.040Z,1029.44
2019-02-06T00:15:26.383Z,1029.43
2019-02-06T00:16:25.773Z,1029.4
2019-02-06T00:17:26.298Z,1029.38
2019-02-06T00:18:26.110Z,1029.37
2019-02-06T00:19:25.711Z,1029.41
2019-02-06T00:20:26.071Z,1029.38
2019-02-06T00:21:26.429Z,1029.39
2019-02-06T00:22:25.989Z,1029.35
2019-02-06T00:23:26.297Z,1029.35
2019-02-06T00:24:27.013Z,1029.37
2019-02-06T00:25:27.557Z,1029.34
2019-02-06T00:26:26.094Z,1029.34
2019-02-06T00:27:26.008Z,1029.32
2019-02-06T00:28:25.768Z,1029.35
2019-02-06T00:29:25.900Z,1029.34
2019-02-06T00:30:25.731Z,1029.33
2019-02-06T00:31:25.729Z,1029.32
2019-02-06T00:32:26.040Z,1029.34
2019-02-06T00:33:26.043Z,1029.34
2019-02-06T00:34:25.812Z,1029.3
2019-02-06T00:35:26.418Z,1029.31
2019-02-06T00:36:26.030Z,1029.32
2019-02-06T00:37:25.700Z,1029.33
2019-02-06T00:38:25.987Z,1029.28
2019-02-06T00:39:26.742Z,1029.28
2019-02-06T00:40:25.998Z,1029.28
2019-02-06T00:41:25.996Z,1029.27
2019-02-06T00:42:26.807Z,1029.27
2019-02-06T00:43:25.820Z,1029.28
2019-02-06T00:44:26.001Z,1029.24
2019-02-06T00:45:25.664Z,1029.26
2019-02-06T00:46:26.062Z,1029.24
2019-02-06T00:47:25.709Z,1029.2
2019-02-06T00:48:25.683Z,1029.25
2019-02-06T00:49:25.690Z,1029.26
2019-02-06T00:50:25.706Z,1029.26
2019-02-06T00:51:25.939Z,1029.31
2019-02-06T00:52:26.222Z,1029.35
2019-02-06T00:53:25.885Z,1029.32
2019-02-06T00:54:25.975Z,1029.34
2019-02-06T00:55:25.640Z,1029.33
2019-02-06T00:56:25.654Z,1029.35
2019-02-06T00:57:25.844Z,1029.36
2019-02-06T00:58:26.004Z,1029.33
2019-02-06T00:59:25.997Z,1029.35
2019-02-06T01:00:25.654Z,1029.38
2019-02-06T01:01:25.635Z,1029.36
2019-02-06T01:02:26.238Z,1029.37
2019-02-06T01:03:25.733Z,1029.35
2019-02-06T01:04:25.775Z,1029.34
2019-02-06T01:05:38.800Z,1029.33
2019-02-06T01:06:25.621Z,1029.28
2019-02-06T01:07:26.423Z,1029.31
2019-02-06T01:08:25.963Z,1029.31
2019-02-06T01:09:25.617Z,1029.32
2019-02-06T01:10:25.631Z,1029.31
2019-02-06T01:11:25.731Z,1029.3
2019-02-06T01:12:26.301Z,1029.3
2019-02-06T01:13:25.621Z,1029.31
2019-02-06T01:14:25.737Z,1029.27
2019-02-06T01:15:26.170Z,1029.26
2019-02-06T01:16:25.713Z,1029.3
2019-02-06T01:17:26.141Z,1029.29
2019-02-06T01:18:26.758Z,1029.3
2019-02-06T01:19:26.346Z,1029.31
2019-02-06T01:20:25.666Z,1029.32
2019-02-06T01:21:25.740Z,1029.32
2019-02-06T01:22:26.216Z,1029.3
2019-02-06T01:23:26.373Z,1029.29
2019-02-06T01:24:25.608Z,1029.29
2019-02-06T01:25:26.080Z,1029.3
2019-02-06T01:26:25.708Z,1029.33
2019-02-06T01:27:25.616Z,1029.29
2019-02-06T01:28:26.102Z,1029.34
2019-02-06T01:29:26.106Z,1029.32
2019-02-06T01:30:26.475Z,1029.3
2019-02-06T01:31:25.746Z,1029.31
2019-02-06T01:32:25.586Z,1029.31
2019-02-06T01:33:25.602Z,1029.34
2019-02-06T01:34:25.951Z,1029.34
2019-02-06T01:35:25.745Z,1029.35
2019-02-06T01:36:26.050Z,1029.39
2019-02-06T01:37:25.951Z,1029.39
2019-02-06T01:38:25.603Z,1029.39
2019-02-06T01:39:25.964Z,1029.38
2019-02-06T01:40:25.620Z,1029.45
2019-02-06T01:41:25.688Z,1029.43
2019-02-06T01:42:25.580Z,1029.42
2019-02-06T01:43:25.991Z,1029.42
2019-02-06T01:44:26.002Z,1029.42
2019-02-06T01:45:26.239Z,1029.43
2019-02-06T01:46:25.734Z,1029.46
2019-02-06T01:47:25.770Z,1029.42
2019-02-06T01:48:25.924Z,1029.47
2019-02-06T01:49:25.770Z,1029.44
2019-02-06T01:50:26.099Z,1029.47
2019-02-06T01:51:25.856Z,1029.51
2019-02-06T01:52:25.788Z,1029.5
2019-02-06T01:53:25.830Z,1029.48
2019-02-06T01:54:25.746Z,1029.51
2019-02-06T01:55:25.979Z,1029.49
2019-02-06T01:56:25.565Z,1029.5
2019-02-06T01:57:25.879Z,1029.54
2019-02-06T01:58:26.206Z,1029.58
2019-02-06T01:59:25.601Z,1029.58
2019-02-06T02:00:26.157Z,1029.57
2019-02-06T02:01:25.652Z,1029.6
2019-02-06T02:02:25.605Z,1029.61
2019-02-06T02:03:25.539Z,1029.58
2019-02-06T02:04:25.823Z,1029.61
2019-02-06T02:05:25.655Z,1029.57
2019-02-06T02:06:25.531Z,1029.58
2019-02-06T02:07:26.715Z,1029.55
2019-02-06T02:08:25.776Z,1029.52
2019-02-06T02:09:25.574Z,1029.52
2019-02-06T02:10:25.969Z,1029.52
2019-02-06T02:11:25.626Z,1029.52
2019-02-06T02:12:25.649Z,1029.52
2019-02-06T02:13:25.735Z,1029.51
2019-02-06T02:14:25.985Z,1029.51
2019-02-06T02:15:26.018Z,1029.52
2019-02-06T02:16:25.528Z,1029.51
2019-02-06T02:17:25.627Z,1029.49
2019-02-06T02:18:25.532Z,1029.47
2019-02-06T02:19:25.516Z,1029.47
2019-02-06T02:20:25.821Z,1029.49
2019-02-06T02:21:25.933Z,1029.45
2019-02-06T02:22:25.618Z,1029.5
2019-02-06T02:23:25.796Z,1029.49
2019-02-06T02:24:25.545Z,1029.49
2019-02-06T02:25:25.514Z,1029.47
2019-02-06T02:26:25.864Z,1029.51
2019-02-06T02:27:25.564Z,1029.44
2019-02-06T02:28:25.872Z,1029.45
2019-02-06T02:29:25.860Z,1029.42
2019-02-06T02:30:25.705Z,1029.41
2019-02-06T02:31:25.638Z,1029.44
2019-02-06T02:32:25.801Z,1029.43
2019-02-06T02:33:25.526Z,1029.43
2019-02-06T02:34:25.715Z,1029.45
2019-02-06T02:35:25.513Z,1029.42
2019-02-06T02:36:25.528Z,1029.42
2019-02-06T02:37:25.530Z,1029.4
2019-02-06T02:38:25.792Z,1029.35
2019-02-06T02:39:25.495Z,1029.36
2019-02-06T02:40:25.506Z,1029.34
2019-02-06T02:41:25.570Z,1029.32
2019-02-06T02:42:25.518Z,1029.31
2019-02-06T02:43:25.493Z,1029.33
2019-02-06T02:44:25.539Z,1029.33
2019-02-06T02:45:25.536Z,1029.35
2019-02-06T02:46:25.845Z,1029.39
2019-02-06T02:47:25.506Z,1029.4
2019-02-06T02:48:25.497Z,1029.41
2019-02-06T02:49:25.577Z,1029.36
2019-02-06T02:50:25.557Z,1029.38
2019-02-06T02:51:25.565Z,1029.36
2019-02-06T02:52:25.596Z,1029.42
2019-02-06T02:53:25.463Z,1029.43
2019-02-06T02:54:25.499Z,1029.41
2019-02-06T02:55:25.751Z,1029.43
2019-02-06T02:56:25.485Z,1029.43
2019-02-06T02:57:25.515Z,1029.37
2019-02-06T02:58:25.484Z,1029.43
2019-02-06T02:59:25.587Z,1029.43
2019-02-06T03:00:25.484Z,1029.41
2019-02-06T03:01:25.701Z,1029.44
2019-02-06T03:02:25.793Z,1029.39
2019-02-06T03:03:25.500Z,1029.39
2019-02-06T03:04:25.562Z,1029.41
2019-02-06T03:05:25.609Z,1029.37
2019-02-06T03:06:28.728Z,1029.34
2019-02-06T03:07:25.709Z,1029.33
2019-02-06T03:08:25.441Z,1029.32
2019-02-06T03:09:26.102Z,1029.33
2019-02-06T03:10:25.549Z,1029.35
2019-02-06T03:11:25.517Z,1029.31
2019-02-06T03:12:25.451Z,1029.31
2019-02-06T03:13:25.510Z,1029.27
2019-02-06T03:14:25.728Z,1029.27
2019-02-06T03:15:25.779Z,1029.28
2019-02-06T03:16:25.696Z,1029.22
2019-02-06T03:17:25.798Z,1029.28
2019-02-06T03:18:25.525Z,1029.28
2019-02-06T03:19:25.449Z,1029.26
2019-02-06T03:20:25.509Z,1029.26
2019-02-06T03:21:25.557Z,1029.22
2019-02-06T03:22:25.733Z,1029.25
2019-02-06T03:23:25.441Z,1029.23
2019-02-06T03:24:25.602Z,1029.22
2019-02-06T03:25:25.532Z,1029.25
2019-02-06T03:26:25.416Z,1029.27
2019-02-06T03:27:25.485Z,1029.23
2019-02-06T03:28:25.472Z,1029.29
2019-02-06T03:29:25.670Z,1029.24
2019-02-06T03:30:26.206Z,1029.25
2019-02-06T03:31:25.603Z,1029.27
2019-02-06T03:32:26.484Z,1029.27
2019-02-06T03:33:25.442Z,1029.24
2019-02-06T03:34:25.421Z,1029.21
2019-02-06T03:35:26.220Z,1029.26
2019-02-06T03:36:25.418Z,1029.21
2019-02-06T03:37:25.474Z,1029.21
2019-02-06T03:38:26.043Z,1029.22
2019-02-06T03:39:25.471Z,1029.21
2019-02-06T03:40:25.419Z,1029.24
2019-02-06T03:41:25.552Z,1029.25
2019-02-06T03:42:25.676Z,1029.22
2019-02-06T03:43:25.685Z,1029.23
2019-02-06T03:44:25.770Z,1029.18
2019-02-06T03:45:25.528Z,1029.2
2019-02-06T03:46:25.463Z,1029.15
2019-02-06T03:47:26.048Z,1029.17
2019-02-06T03:48:25.482Z,1029.13
2019-02-06T03:49:25.449Z,1029.15
2019-02-06T03:50:25.434Z,1029.1
2019-02-06T03:51:25.588Z,1029.09
2019-02-06T03:52:25.522Z,1029.09
2019-02-06T03:53:25.384Z,1029.08
2019-02-06T03:54:25.731Z,1029.06
2019-02-06T03:55:25.685Z,1029.09
2019-02-06T03:56:25.381Z,1029.09
2019-02-06T03:57:25.419Z,1029.1
2019-02-06T03:58:25.556Z,1029.06
2019-02-06T03:59:25.874Z,1029.09
2019-02-06T04:00:25.657Z,1029.09
2019-02-06T04:01:25.362Z,1029.09
2019-02-06T04:02:25.729Z,1029.11
2019-02-06T04:03:25.389Z,1029.09
2019-02-06T04:04:25.568Z,1029.12
2019-02-06T04:05:25.816Z,1029.08
2019-02-06T04:06:25.465Z,1029.1
2019-02-06T04:07:25.606Z,1029.06
2019-02-06T04:08:25.827Z,1029.04
2019-02-06T04:09:25.448Z,1029.08
2019-02-06T04:10:25.912Z,1029.06
2019-02-06T04:11:25.551Z,1029.07
2019-02-06T04:12:25.445Z,1029.07
2019-02-06T04:13:25.493Z,1029.13
2019-02-06T04:14:25.470Z,1029.09
2019-02-06T04:15:25.380Z,1029.12
2019-02-06T04:16:25.440Z,1029.1
2019-02-06T04:17:25.475Z,1029.1
2019-02-06T04:18:25.439Z,1029.13
2019-02-06T04:19:25.347Z,1029.13
2019-02-06T04:20:25.467Z,1029.12
2019-02-06T04:21:25.609Z,1029.12
2019-02-06T04:22:25.374Z,1029.09
2019-02-06T04:23:25.358Z,1029.07
2019-02-06T04:24:25.338Z,1029.03
2019-02-06T04:25:26.089Z,1029.05
2019-02-06T04:26:25.451Z,1029.07
2019-02-06T04:27:25.372Z,1029.07
2019-02-06T04:28:25.489Z,1029.09
2019-02-06T04:29:25.308Z,1029.05
2019-02-06T04:30:25.430Z,1029.09
2019-02-06T04:31:25.362Z,1029.06
2019-02-06T04:32:25.414Z,1029.08
2019-02-06T04:33:26.138Z,1029.14
2019-02-06T04:34:25.438Z,1029.13
2019-02-06T04:35:25.374Z,1029.18
2019-02-06T04:36:25.311Z,1029.16
2019-02-06T04:37:25.412Z,1029.12
2019-02-06T04:38:25.345Z,1029.14
2019-02-06T04:39:25.466Z,1029.14
2019-02-06T04:40:25.298Z,1029.15
2019-02-06T04:41:25.373Z,1029.12
2019-02-06T04:42:25.489Z,1029.11
2019-02-06T04:43:25.317Z,1029.1
2019-02-06T04:44:25.505Z,1029.13
2019-02-06T04:45:25.304Z,1029.09
2019-02-06T04:46:25.907Z,1029.07
2019-02-06T04:47:25.310Z,1029.1
2019-02-06T04:48:25.639Z,1029.12
2019-02-06T04:49:25.574Z,1029.12
2019-02-06T04:50:25.434Z,1029.09
2019-02-06T04:51:25.653Z,1029.13
2019-02-06T04:52:25.313Z,1029.1
2019-02-06T04:53:25.340Z,1029.15
2019-02-06T04:54:25.521Z,1029.15
2019-02-06T04:55:25.619Z,1029.16
2019-02-06T04:56:26.596Z,1029.11
2019-02-06T04:57:25.388Z,1029.11
2019-02-06T04:58:25.452Z,1029.12
2019-02-06T04:59:25.749Z,1029.09
2019-02-06T05:00:25.341Z,1029.08
2019-02-06T05:01:26.378Z,1029.07
2019-02-06T05:02:25.788Z,1029.08
2019-02-06T05:03:26.234Z,1029.02
2019-02-06T05:04:25.362Z,1029.07
2019-02-06T05:05:25.458Z,1029.02
2019-02-06T05:06:25.292Z,1029.02
2019-02-06T05:07:25.597Z,1029.05
2019-02-06T05:08:25.439Z,1029.05
2019-02-06T05:09:25.611Z,1029.03
2019-02-06T05:10:25.268Z,1029.04
2019-02-06T05:11:26.481Z,1029.04
2019-02-06T05:12:25.528Z,1029.01
2019-02-06T05:13:25.353Z,1029.02
2019-02-06T05:14:25.418Z,1029.04
2019-02-06T05:15:25.851Z,1029.02
2019-02-06T05:16:25.550Z,1029
2019-02-06T05:17:25.383Z,1029.01
2019-02-06T05:18:25.484Z,1029.02
2019-02-06T05:19:27.105Z,1029.01
2019-02-06T05:20:25.690Z,1029.03
2019-02-06T05:21:25.370Z,1029.03
2019-02-06T05:22:25.266Z,1029.01
2019-02-06T05:23:25.594Z,1029.02
2019-02-06T05:24:25.603Z,1029.02
2019-02-06T05:25:25.240Z,1028.99
2019-02-06T05:26:25.771Z,1029.01
2019-02-06T05:27:25.519Z,1029.05
2019-02-06T05:28:25.378Z,1029.04
2019-02-06T05:29:25.308Z,1029.04
2019-02-06T05:30:25.243Z,1029.04
2019-02-06T05:31:25.548Z,1029.07
2019-02-06T05:32:25.448Z,1029.06
2019-02-06T05:33:25.553Z,1029.04
2019-02-06T05:34:25.380Z,1029.12
2019-02-06T05:35:25.574Z,1029.06
2019-02-06T05:36:25.579Z,1029.1
2019-02-06T05:37:32.539Z,1029.1
2019-02-06T05:38:25.441Z,1029.1
2019-02-06T05:39:25.504Z,1029.08
2019-02-06T05:40:25.610Z,1029.08
2019-02-06T05:41:25.615Z,1029.1
2019-02-06T05:42:25.511Z,1029.07
2019-02-06T05:43:25.448Z,1029.07
2019-02-06T05:44:25.332Z,1029.1
2019-02-06T05:45:25.253Z,1029.09
2019-02-06T05:46:25.554Z,1029.11
2019-02-06T05:47:25.278Z,1029.06
2019-02-06T05:48:25.265Z,1029.11
2019-02-06T05:49:25.243Z,1029.09
2019-02-06T05:50:25.417Z,1029.1
2019-02-06T05:51:25.212Z,1029.1
2019-02-06T05:52:25.271Z,1029.14
2019-02-06T05:53:25.203Z,1029.12
2019-02-06T05:54:25.214Z,1029.14
2019-02-06T05:55:25.351Z,1029.11
2019-02-06T05:56:25.870Z,1029.12
2019-02-06T05:57:25.516Z,1029.09
2019-02-06T05:58:25.244Z,1029.14
2019-02-06T05:59:25.218Z,1029.06
2019-02-06T06:00:25.175Z,1029.08
2019-02-06T06:01:25.297Z,1029.15
2019-02-06T06:02:25.457Z,1029.12
2019-02-06T06:03:25.173Z,1029.16
2019-02-06T06:04:25.207Z,1029.13
2019-02-06T06:05:25.376Z,1029.13
2019-02-06T06:06:25.183Z,1029.16
2019-02-06T06:07:25.179Z,1029.17
2019-02-06T06:08:25.179Z,1029.11
2019-02-06T06:09:25.203Z,1029.13
2019-02-06T06:10:25.211Z,1029.1
2019-02-06T06:11:25.660Z,1029.07
2019-02-06T06:12:25.176Z,1029.07
2019-02-06T06:13:25.182Z,1029.05
2019-02-06T06:14:25.358Z,1029.08
2019-02-06T06:15:25.191Z,1029.11
2019-02-06T06:16:25.209Z,1029.08
2019-02-06T06:17:25.214Z,1029.12
2019-02-06T06:18:25.501Z,1029.14
2019-02-06T06:19:25.527Z,1029.11
2019-02-06T06:20:25.462Z,1029.1
2019-02-06T06:21:25.192Z,1029.06
2019-02-06T06:22:25.144Z,1029
2019-02-06T06:23:25.888Z,1029.03
2019-02-06T06:24:25.601Z,1028.99
2019-02-06T06:25:25.508Z,1029
2019-02-06T06:26:25.642Z,1028.95
2019-02-06T06:27:25.197Z,1028.96
2019-02-06T06:28:25.412Z,1028.94
2019-02-06T06:29:25.277Z,1028.96
2019-02-06T06:30:25.169Z,1028.92
2019-02-06T06:31:25.146Z,1028.95
2019-02-06T06:32:25.291Z,1028.98
2019-02-06T06:33:25.640Z,1028.95
2019-02-06T06:34:25.478Z,1028.95
2019-02-06T06:35:25.460Z,1028.96
2019-02-06T06:36:25.155Z,1029.01
2019-02-06T06:37:25.147Z,1028.98
2019-02-06T06:38:25.300Z,1028.97
2019-02-06T06:39:25.270Z,1029.01
2019-02-06T06:40:25.348Z,1029.03
2019-02-06T06:41:25.963Z,1029.04
2019-02-06T06:42:25.139Z,1029.06
2019-02-06T06:43:25.316Z,1029.1
2019-02-06T06:44:25.153Z,1029.15
2019-02-06T06:45:25.154Z,1029.16
2019-02-06T06:46:26.994Z,1029.19
2019-02-06T06:47:25.191Z,1029.16
2019-02-06T06:48:25.252Z,1029.12
2019-02-06T06:49:25.158Z,1029.15
2019-02-06T06:50:25.460Z,1029.14
2019-02-06T06:51:25.463Z,1029.2
2019-02-06T06:52:26.974Z,1029.19
2019-02-06T06:53:25.215Z,1029.24
2019-02-06T06:54:25.581Z,1029.22
2019-02-06T06:55:25.588Z,1029.21
2019-02-06T06:56:25.441Z,1029.21
2019-02-06T06:57:25.091Z,1029.26
2019-02-06T06:58:25.393Z,1029.23
2019-02-06T06:59:25.099Z,1029.22
2019-02-06T07:00:25.731Z,1029.25
2019-02-06T07:01:25.185Z,1029.26
2019-02-06T07:02:25.320Z,1029.27
2019-02-06T07:03:25.642Z,1029.27
2019-02-06T07:04:25.905Z,1029.32
2019-02-06T07:05:25.345Z,1029.28
2019-02-06T07:06:25.161Z,1029.29
2019-02-06T07:07:25.562Z,1029.26
2019-02-06T07:08:25.153Z,1029.26
2019-02-06T07:09:25.126Z,1029.24
2019-02-06T07:10:25.287Z,1029.23
2019-02-06T07:11:25.443Z,1029.24
2019-02-06T07:12:25.956Z,1029.22
2019-02-06T07:13:25.502Z,1029.23
2019-02-06T07:14:25.136Z,1029.24
2019-02-06T07:15:25.515Z,1029.22
2019-02-06T07:16:25.417Z,1029.22
2019-02-06T07:17:26.947Z,1029.26
2019-02-06T07:18:25.327Z,1029.26
2019-02-06T07:19:25.596Z,1029.31
2019-02-06T07:20:25.061Z,1029.29
2019-02-06T07:21:25.081Z,1029.29
2019-02-06T07:22:25.239Z,1029.32
2019-02-06T07:23:26.588Z,1029.34
2019-02-06T07:24:25.063Z,1029.34
2019-02-06T07:25:25.072Z,1029.33
2019-02-06T07:26:25.380Z,1029.33
2019-02-06T07:27:25.338Z,1029.37
2019-02-06T07:28:25.066Z,1029.41
2019-02-06T07:29:25.066Z,1029.41
2019-02-06T07:30:25.036Z,1029.44
2019-02-06T07:31:25.056Z,1029.46
2019-02-06T07:32:25.193Z,1029.43
2019-02-06T07:33:26.916Z,1029.48
2019-02-06T07:34:25.367Z,1029.46
2019-02-06T07:35:25.044Z,1029.46
2019-02-06T07:36:25.860Z,1029.42
2019-02-06T07:37:25.097Z,1029.45
2019-02-06T07:38:25.384Z,1029.4
2019-02-06T07:39:25.088Z,1029.39
2019-02-06T07:40:25.372Z,1029.42
2019-02-06T07:41:25.277Z,1029.46
2019-02-06T07:42:25.444Z,1029.43
2019-02-06T07:43:25.185Z,1029.44
2019-02-06T07:44:25.030Z,1029.41
2019-02-06T07:45:25.017Z,1029.42
2019-02-06T07:46:25.157Z,1029.42
2019-02-06T07:47:25.033Z,1029.41
2019-02-06T07:48:25.062Z,1029.39
2019-02-06T07:49:25.019Z,1029.43
2019-02-06T07:50:25.060Z,1029.44
2019-02-06T07:51:25.437Z,1029.47
2019-02-06T07:52:25.044Z,1029.45
2019-02-06T07:53:25.016Z,1029.47
2019-02-06T07:54:25.066Z,1029.45
2019-02-06T07:55:25.192Z,1029.43
2019-02-06T07:56:25.031Z,1029.43
2019-02-06T07:57:25.250Z,1029.44
2019-02-06T07:58:25.019Z,1029.45
2019-02-06T07:59:25.022Z,1029.45
2019-02-06T08:00:25.043Z,1029.44
2019-02-06T08:01:25.009Z,1029.45
2019-02-06T08:02:25.309Z,1029.46
2019-02-06T08:03:25.009Z,1029.48
2019-02-06T08:04:25.629Z,1029.49
2019-02-06T08:05:25.483Z,1029.46
2019-02-06T08:06:26.662Z,1029.48
2019-02-06T08:07:25.036Z,1029.5
2019-02-06T08:08:36.481Z,1029.53
2019-02-06T08:09:24.985Z,1029.53
2019-02-06T08:10:25.096Z,1029.52
2019-02-06T08:11:24.987Z,1029.49
2019-02-06T08:12:25.324Z,1029.55
2019-02-06T08:13:25.223Z,1029.56
2019-02-06T08:14:26.848Z,1029.56
2019-02-06T08:15:25.013Z,1029.6
2019-02-06T08:16:25.395Z,1029.55
2019-02-06T08:17:25.503Z,1029.55
2019-02-06T08:18:25.515Z,1029.59
2019-02-06T08:19:25.240Z,1029.63
2019-02-06T08:20:27.221Z,1029.55
2019-02-06T08:21:25.087Z,1029.59
2019-02-06T08:22:25.305Z,1029.61
2019-02-06T08:23:25.045Z,1029.63
2019-02-06T08:24:25.451Z,1029.64
2019-02-06T08:25:25.225Z,1029.65
2019-02-06T08:26:25.261Z,1029.65
2019-02-06T08:27:26.653Z,1029.64
2019-02-06T08:28:25.946Z,1029.68
2019-02-06T08:29:25.604Z,1029.64
2019-02-06T08:30:25.393Z,1029.59
2019-02-06T08:31:25.041Z,1029.63
2019-02-06T08:32:25.165Z,1029.6
2019-02-06T08:33:25.285Z,1029.62
2019-02-06T08:34:26.815Z,1029.62
2019-02-06T08:35:25.272Z,1029.61
2019-02-06T08:36:25.207Z,1029.61
2019-02-06T08:37:24.963Z,1029.6
2019-02-06T08:38:25.027Z,1029.57
2019-02-06T08:39:26.169Z,1029.62
2019-02-06T08:40:25.423Z,1029.61
2019-02-06T08:41:24.951Z,1029.61
2019-02-06T08:42:25.469Z,1029.64
2019-02-06T08:43:25.326Z,1029.62
2019-02-06T08:44:25.281Z,1029.63
2019-02-06T08:45:24.971Z,1029.64
2019-02-06T08:46:25.194Z,1029.63
2019-02-06T08:47:25.609Z,1029.62
2019-02-06T08:48:24.939Z,1029.6
2019-02-06T08:49:25.041Z,1029.62
2019-02-06T08:50:24.991Z,1029.66
2019-02-06T08:51:25.273Z,1029.6
2019-02-06T08:52:24.936Z,1029.59
2019-02-06T08:53:24.934Z,1029.6
2019-02-06T08:54:25.185Z,1029.57
2019-02-06T08:55:25.246Z,1029.57
2019-02-06T08:56:25.254Z,1029.55
2019-02-06T08:57:25.269Z,1029.54
2019-02-06T08:58:25.318Z,1029.53
2019-02-06T08:59:25.276Z,1029.54
2019-02-06T09:00:25.387Z,1029.55
2019-02-06T09:01:25.156Z,1029.56
2019-02-06T09:02:25.405Z,1029.53
2019-02-06T09:03:25.098Z,1029.55
2019-02-06T09:04:24.976Z,1029.54
2019-02-06T09:05:25.175Z,1029.55
2019-02-06T09:06:25.475Z,1029.58
2019-02-06T09:07:25.062Z,1029.55
2019-02-06T09:08:24.934Z,1029.6
2019-02-06T09:09:25.459Z,1029.57
2019-02-06T09:10:24.944Z,1029.56
2019-02-06T09:11:25.170Z,1029.57
2019-02-06T09:12:24.912Z,1029.55
2019-02-06T09:13:25.032Z,1029.58
2019-02-06T09:14:25.034Z,1029.55
2019-02-06T09:15:27.757Z,1029.56
2019-02-06T09:16:25.182Z,1029.55
2019-02-06T09:17:24.933Z,1029.62
2019-02-06T09:18:25.200Z,1029.6
2019-02-06T09:19:25.331Z,1029.59
2019-02-06T09:20:25.031Z,1029.59
2019-02-06T09:21:25.422Z,1029.6
2019-02-06T09:22:26.755Z,1029.58
2019-02-06T09:23:24.884Z,1029.62
2019-02-06T09:24:25.130Z,1029.57
2019-02-06T09:25:25.152Z,1029.61
2019-02-06T09:26:25.138Z,1029.6
2019-02-06T09:27:24.988Z,1029.55
2019-02-06T09:28:24.966Z,1029.54
2019-02-06T09:29:25.421Z,1029.53
2019-02-06T09:30:24.952Z,1029.52
2019-02-06T09:31:24.923Z,1029.49
2019-02-06T09:32:25.037Z,1029.52
2019-02-06T09:33:24.930Z,1029.48
2019-02-06T09:34:24.980Z,1029.49
2019-02-06T09:35:24.986Z,1029.44
2019-02-06T09:36:25.177Z,1029.48
2019-02-06T09:37:24.936Z,1029.48
2019-02-06T09:38:25.026Z,1029.47
2019-02-06T09:39:24.906Z,1029.4
2019-02-06T09:40:24.951Z,1029.42
2019-02-06T09:41:24.901Z,1029.41
2019-02-06T09:42:24.980Z,1029.4
2019-02-06T09:43:27.672Z,1029.43
2019-02-06T09:44:25.316Z,1029.47
2019-02-06T09:45:24.959Z,1029.4
2019-02-06T09:46:24.911Z,1029.41
2019-02-06T09:47:24.915Z,1029.43
2019-02-06T09:48:24.838Z,1029.41
2019-02-06T09:49:25.095Z,1029.42
2019-02-06T09:50:24.990Z,1029.43
2019-02-06T09:51:25.319Z,1029.41
2019-02-06T09:52:29.052Z,1029.39
2019-02-06T09:53:24.882Z,1029.42
2019-02-06T09:54:25.680Z,1029.4
2019-02-06T09:55:24.966Z,1029.35
2019-02-06T09:56:24.919Z,1029.33
2019-02-06T09:57:24.996Z,1029.31
2019-02-06T09:58:25.226Z,1029.34
2019-02-06T09:59:25.620Z,1029.32
2019-02-06T10:00:25.270Z,1029.31
2019-02-06T10:01:25.719Z,1029.32
2019-02-06T10:02:26.003Z,1029.31
2019-02-06T10:03:25.072Z,1029.29
2019-02-06T10:04:25.064Z,1029.27
2019-02-06T10:05:24.847Z,1029.24
2019-02-06T10:06:24.849Z,1029.28
2019-02-06T10:07:24.842Z,1029.25
2019-02-06T10:08:25.111Z,1029.29
2019-02-06T10:09:25.950Z,1029.25
2019-02-06T10:10:24.912Z,1029.28
2019-02-06T10:11:25.029Z,1029.21
2019-02-06T10:12:24.818Z,1029.26
2019-02-06T10:13:25.001Z,1029.28
2019-02-06T10:14:25.409Z,1029.27
2019-02-06T10:15:24.933Z,1029.29
2019-02-06T10:16:24.805Z,1029.29
2019-02-06T10:17:24.797Z,1029.27
2019-02-06T10:18:26.570Z,1029.26
2019-02-06T10:19:25.125Z,1029.25
2019-02-06T10:20:24.929Z,1029.27
2019-02-06T10:21:24.984Z,1029.26
2019-02-06T10:22:25.358Z,1029.23
2019-02-06T10:23:24.803Z,1029.21
2019-02-06T10:24:25.082Z,1029.17
2019-02-06T10:25:25.121Z,1029.13
2019-02-06T10:26:25.061Z,1029.17
2019-02-06T10:27:25.022Z,1029.17
2019-02-06T10:28:26.065Z,1029.14
2019-02-06T10:29:24.870Z,1029.13
2019-02-06T10:30:25.050Z,1029.12
2019-02-06T10:31:25.074Z,1029.09
2019-02-06T10:32:25.199Z,1029.09
2019-02-06T10:33:25.033Z,1029.13
2019-02-06T10:34:24.948Z,1029.09
2019-02-06T10:35:25.076Z,1029.09
2019-02-06T10:36:24.922Z,1029.11
2019-02-06T10:37:25.150Z,1029.05
2019-02-06T10:38:25.105Z,1029.03
2019-02-06T10:39:34.913Z,1029.03
2019-02-06T10:40:24.770Z,1029.03
2019-02-06T10:41:24.972Z,1029
2019-02-06T10:42:24.887Z,1028.98
2019-02-06T10:43:35.587Z,1029
2019-02-06T10:44:24.922Z,1028.97
2019-02-06T10:45:25.203Z,1029.02
2019-02-06T10:46:24.760Z,1028.98
2019-02-06T10:47:24.799Z,1028.99
2019-02-06T10:48:25.172Z,1028.98
2019-02-06T10:49:25.299Z,1028.97
2019-02-06T10:50:24.742Z,1028.98
2019-02-06T10:51:24.895Z,1028.98
2019-02-06T10:52:25.183Z,1028.99
2019-02-06T10:53:24.793Z,1028.96
2019-02-06T10:54:24.857Z,1028.94
2019-02-06T10:55:24.739Z,1028.93
2019-02-06T10:56:25.245Z,1028.89
2019-02-06T10:57:24.824Z,1028.83
2019-02-06T10:58:25.041Z,1028.82
2019-02-06T10:59:24.741Z,1028.74
2019-02-06T11:00:25.199Z,1028.77
2019-02-06T11:01:25.264Z,1028.75
2019-02-06T11:02:25.060Z,1028.77
2019-02-06T11:03:24.874Z,1028.67
2019-02-06T11:04:24.721Z,1028.65
2019-02-06T11:05:24.728Z,1028.63
2019-02-06T11:06:25.174Z,1028.6
2019-02-06T11:07:25.208Z,1028.58
2019-02-06T11:08:25.106Z,1028.52
2019-02-06T11:09:25.324Z,1028.54
2019-02-06T11:10:24.706Z,1028.46
2019-02-06T11:11:24.927Z,1028.44
2019-02-06T11:12:24.830Z,1028.42
2019-02-06T11:13:25.025Z,1028.42
2019-02-06T11:14:24.733Z,1028.4
2019-02-06T11:15:25.386Z,1028.37
2019-02-06T11:16:24.734Z,1028.36
2019-02-06T11:17:24.714Z,1028.31
2019-02-06T11:18:24.721Z,1028.34
2019-02-06T11:19:24.709Z,1028.29
2019-02-06T11:20:24.694Z,1028.31
2019-02-06T11:21:25.185Z,1028.3
2019-02-06T11:22:24.784Z,1028.28
2019-02-06T11:23:25.146Z,1028.29
2019-02-06T11:24:27.007Z,1028.27
2019-02-06T11:25:24.729Z,1028.23
2019-02-06T11:26:24.713Z,1028.22
2019-02-06T11:27:24.738Z,1028.22
2019-02-06T11:28:24.691Z,1028.16
2019-02-06T11:29:25.136Z,1028.19
2019-02-06T11:30:25.144Z,1028.12
2019-02-06T11:31:24.688Z,1028.15
2019-02-06T11:32:24.990Z,1028.09
2019-02-06T11:33:25.049Z,1028.08
2019-02-06T11:34:24.710Z,1028.08
2019-02-06T11:35:24.910Z,1028.06
2019-02-06T11:36:25.180Z,1028.03
2019-02-06T11:37:24.693Z,1028.01
2019-02-06T11:38:28.173Z,1027.94
2019-02-06T11:39:24.998Z,1027.91
2019-02-06T11:40:24.726Z,1027.93
2019-02-06T11:41:24.885Z,1027.88
2019-02-06T11:42:24.969Z,1027.9
2019-02-06T11:43:24.669Z,1027.87
2019-02-06T11:44:24.733Z,1027.85
2019-02-06T11:45:25.050Z,1027.83
2019-02-06T11:46:25.119Z,1027.76
2019-02-06T11:47:24.767Z,1027.78
2019-02-06T11:48:24.877Z,1027.74
2019-02-06T11:49:24.732Z,1027.74
2019-02-06T11:50:24.877Z,1027.74
2019-02-06T11:51:26.520Z,1027.69
2019-02-06T11:52:25.079Z,1027.65
2019-02-06T11:53:26.715Z,1027.64
2019-02-06T11:54:24.859Z,1027.61
2019-02-06T11:55:24.806Z,1027.6
2019-02-06T11:56:24.648Z,1027.59
2019-02-06T11:57:25.175Z,1027.57
2019-02-06T11:58:24.934Z,1027.58
2019-02-06T11:59:24.929Z,1027.59
2019-02-06T12:00:24.805Z,1027.59
2019-02-06T12:01:25.295Z,1027.53
2019-02-06T12:02:24.738Z,1027.54
2019-02-06T12:03:24.707Z,1027.54
2019-02-06T12:04:24.699Z,1027.51
2019-02-06T12:05:25.065Z,1027.51
2019-02-06T12:06:24.728Z,1027.48
2019-02-06T12:07:24.648Z,1027.45